Time;durP1;ratioP1;P1;durP2;ratioP2;P2;SDS_P1;SDS_P2;PMS_P1;PMS_P2;Temp;Humidity;BMP_temperature;BMP_pressure;BME280_temperature;BME280_humidity;BME280_pressure;Samples;Min_cycle;Max_cycle;Signal;HPM_P1;HPM_P2
2022/12/31 00:00:33;;;;;;;24.17;13.07;;;;;;;6.39;69.18;99945.88;4957765;28;97447;-80
2022/12/31 00:02:59;;;;;;;24.57;12.33;;;;;;;6.43;69.21;99944.03;4929983;28;102090;-81
2022/12/31 00:05:24;;;;;;;21.70;11.87;;;;;;;6.31;69.39;99930.41;4927657;28;100887;-80
2022/12/31 00:07:50;;;;;;;17.80;10.10;;;;;;;6.50;69.36;99930.84;4926348;28;97441;-80
2022/12/31 00:10:16;;;;;;;16.80;10.40;;;;;;;6.41;69.31;99920.63;4936911;28;96905;-80
2022/12/31 00:12:41;;;;;;;18.93;10.00;;;;;;;6.55;69.38;99941.16;4928600;28;101275;-85
2022/12/31 00:15:07;;;;;;;24.00;10.13;;;;;;;6.47;69.28;99898.75;4928717;28;101590;-80
2022/12/31 00:17:33;;;;;;;18.30;10.00;;;;;;;6.60;69.13;99923.63;4910200;28;96962;-81
2022/12/31 00:19:58;;;;;;;19.83;10.20;;;;;;;6.69;69.34;99933.00;4934200;28;96949;-81
2022/12/31 00:22:24;;;;;;;15.97;9.03;;;;;;;6.77;69.10;99925.84;4937649;28;101787;-80
2022/12/31 00:24:49;;;;;;;15.93;8.80;;;;;;;6.83;69.24;99927.44;4896181;28;101465;-81
2022/12/31 00:27:15;;;;;;;13.73;8.67;;;;;;;6.78;68.91;99911.94;4919877;28;97316;-80
2022/12/31 00:29:41;;;;;;;15.87;8.90;;;;;;;6.87;68.50;99926.50;4943417;28;96862;-80
2022/12/31 00:32:06;;;;;;;15.27;8.27;;;;;;;6.90;68.88;99931.63;4944186;28;101111;-80
2022/12/31 00:34:32;;;;;;;15.57;8.97;;;;;;;6.92;68.88;99922.00;4928716;28;101250;-80
2022/12/31 00:36:57;;;;;;;15.03;7.87;;;;;;;6.86;69.17;99901.28;4909358;28;97421;-79
2022/12/31 00:39:23;;;;;;;13.13;8.00;;;;;;;6.96;68.68;99910.59;4944940;28;97486;-81
2022/12/31 00:41:49;;;;;;;12.73;8.13;;;;;;;6.89;68.77;99906.41;4898763;28;101280;-80
2022/12/31 00:44:14;;;;;;;13.30;8.23;;;;;;;7.03;68.54;99906.91;4918534;28;97340;-81
2022/12/31 00:46:40;;;;;;;12.03;7.73;;;;;;;7.06;68.70;99922.50;4938799;28;97206;-81
2022/12/31 00:49:06;;;;;;;14.47;7.93;;;;;;;6.98;68.29;99908.78;4944448;28;96791;-81
2022/12/31 00:51:32;;;;;;;16.50;8.77;;;;;;;7.09;68.30;99930.25;4908288;28;101732;-80
2022/12/31 00:53:57;;;;;;;14.53;7.83;;;;;;;7.12;68.43;99958.03;4927467;28;101347;-80
2022/12/31 00:56:25;;;;;;;14.00;8.17;;;;;;;7.04;68.42;99924.31;4917879;28;96904;-81
2022/12/31 00:58:51;;;;;;;12.77;7.83;;;;;;;7.14;68.34;99935.34;4925375;28;97015;-80
2022/12/31 01:01:18;;;;;;;14.33;8.07;;;;;;;7.13;68.26;99936.28;4911894;28;98140;-80
2022/12/31 01:03:48;;;;;;;14.65;8.25;;;;;;;7.25;68.50;99949.00;4914575;28;101633;-80
2022/12/31 01:06:14;;;;;;;12.50;8.00;;;;;;;7.26;68.42;99946.31;4909042;28;96943;-81
2022/12/31 01:08:40;;;;;;;12.03;7.30;;;;;;;7.20;68.80;99938.66;4906465;28;96773;-80
2022/12/31 01:11:18;;;;;;;13.40;8.33;;;;;;;7.19;68.42;99938.72;4918524;28;100956;-80
2022/12/31 01:13:54;;;;;;;12.77;7.75;;;;;;;7.33;68.10;99954.00;4877096;28;1279686;-81
2022/12/31 01:16:23;;;;;;;17.90;8.10;;;;;;;7.38;68.32;99949.50;4929412;28;97074;-80
2022/12/31 01:18:49;;;;;;;10.63;7.10;;;;;;;7.43;67.94;99947.63;4946162;28;97204;-83
2022/12/31 01:21:16;;;;;;;12.63;7.23;;;;;;;7.43;68.22;99939.81;4912132;28;97161;-81
2022/12/31 01:23:41;;;;;;;11.82;6.97;;;;;;;7.38;67.77;99920.78;4921238;28;101358;-81
2022/12/31 01:26:10;;;;;;;10.50;6.70;;;;;;;7.54;68.00;99922.09;4925907;28;97099;-80
2022/12/31 01:28:35;;;;;;;8.98;6.55;;;;;;;7.59;67.65;99928.06;4926226;28;97480;-81
2022/12/31 01:31:05;;;;;;;9.52;6.55;;;;;;;7.55;67.99;99920.31;4921436;28;101627;-80
2022/12/31 01:33:31;;;;;;;9.70;6.75;;;;;;;7.54;67.64;99892.50;4910875;28;101306;-80
2022/12/31 01:36:10;;;;;;;9.90;6.13;;;;;;;7.76;67.55;99927.53;4912855;28;96787;-80
2022/12/31 01:38:36;;;;;;;8.27;5.95;;;;;;;7.70;67.52;99912.91;4929202;28;96911;-80
2022/12/31 01:41:03;;;;;;;9.25;6.43;;;;;;;7.79;67.65;99931.84;4927876;28;101327;-80
2022/12/31 01:43:50;;;;;;;7.37;5.87;;;;;;;7.80;67.75;99931.81;4912699;28;101475;-82
2022/12/31 01:46:42;;;;;;;8.73;5.70;;;;;;;7.98;68.05;99955.69;4962326;28;96686;-81
2022/12/31 01:49:31;;;;;;;8.70;5.40;;;;;;;7.96;67.70;99960.94;4919540;28;96812;-80
2022/12/31 01:52:02;;;;;;;10.97;6.40;;;;;;;8.02;67.46;99965.16;4930907;28;97976;-79
2022/12/31 01:54:31;;;;;;;11.68;6.47;;;;;;;8.07;67.85;99971.09;4930176;28;97990;-80
2022/12/31 01:56:57;;;;;;;9.90;6.97;;;;;;;8.05;68.07;99965.91;4912875;28;96877;-80
2022/12/31 01:59:24;;;;;;;8.18;5.60;;;;;;;8.06;67.89;99972.00;4910427;28;96735;-81
2022/12/31 02:01:53;;;;;;;9.77;5.85;;;;;;;8.11;67.87;99980.56;4956708;28;100836;-81
2022/12/31 02:04:20;;;;;;;9.73;5.63;;;;;;;8.03;67.98;99966.84;4905237;28;101395;-80
2022/12/31 02:06:51;;;;;;;8.93;6.03;;;;;;;7.85;67.99;99937.75;4939638;28;97029;-80
2022/12/31 02:09:17;;;;;;;9.40;5.53;;;;;;;8.10;67.78;99971.88;4913262;28;96746;-80
2022/12/31 02:11:42;;;;;;;7.50;5.10;;;;;;;8.20;68.23;99984.66;4936949;28;101277;-80
2022/12/31 02:14:14;;;;;;;7.75;5.78;;;;;;;8.06;68.61;99972.88;4918118;28;101749;-82
2022/12/31 02:16:58;;;;;;;9.32;5.72;;;;;;;8.23;68.25;99987.19;4896210;28;97776;-80
2022/12/31 02:19:48;;;;;;;8.45;5.40;;;;;;;8.27;68.27;99981.81;4924014;28;97512;-80
2022/12/31 02:22:35;;;;;;;8.52;5.35;;;;;;;8.29;68.73;99989.59;4940000;28;101507;-81
2022/12/31 02:25:19;;;;;;;7.35;5.28;;;;;;;8.33;69.03;99983.41;4928200;28;97819;-80
2022/12/31 02:28:23;;;;;;;6.88;4.85;;;;;;;8.36;68.91;99980.69;4928433;28;97379;-80
2022/12/31 02:30:53;;;;;;;6.28;4.40;;;;;;;8.37;68.66;99982.41;4915168;28;97106;-80
2022/12/31 02:33:56;;;;;;;4.85;3.58;;;;;;;8.45;69.11;99976.97;4912185;28;101724;-80
2022/12/31 02:36:31;;;;;;;5.88;3.75;;;;;;;8.55;69.08;99970.53;4914942;28;103214;-82
2022/12/31 02:38:57;;;;;;;4.20;3.50;;;;;;;8.57;69.14;99974.81;4934420;28;97188;-82
2022/12/31 02:44:30;;;;;;;5.57;3.47;;;;;;;8.59;69.20;99986.09;4940743;28;102020;-80
2022/12/31 02:47:08;;;;;;;6.35;3.83;;;;;;;8.66;69.16;99986.75;4950093;28;97955;-83
2022/12/31 02:50:01;;;;;;;4.65;3.63;;;;;;;8.69;68.93;99997.13;4916389;28;96706;-80
2022/12/31 02:52:52;;;;;;;5.32;3.42;;;;;;;8.67;69.10;100000.69;4925140;28;96969;-80
2022/12/31 02:55:36;;;;;;;4.13;3.28;;;;;;;8.74;69.89;99997.84;4915110;28;101620;-81
2022/12/31 03:06:52;;;;;;;4.25;2.75;;;;;;;9.00;69.19;99978.69;4926684;28;98425;-81
2022/12/31 03:09:18;;;;;;;4.82;2.72;;;;;;;8.87;69.32;99959.03;4931100;28;101236;-80
2022/12/31 03:14:28;;;;;;;4.00;3.10;;;;;;;9.02;68.80;99983.88;4935624;28;97770;-81
2022/12/31 03:16:54;;;;;;;4.55;2.70;;;;;;;9.06;68.51;99994.19;4931226;28;97916;-81
2022/12/31 03:27:33;;;;;;;5.53;3.25;;;;;;;9.11;68.78;99999.28;4946969;28;101279;-80
2022/12/31 03:29:58;;;;;;;4.00;3.17;;;;;;;9.18;68.80;99998.16;4931408;28;101235;-82
2022/12/31 03:32:24;;;;;;;4.63;3.10;;;;;;;9.17;68.17;100004.31;4912584;28;96939;-80
2022/12/31 03:34:49;;;;;;;4.85;2.85;;;;;;;9.11;68.42;99994.06;4934617;28;96879;-81
2022/12/31 03:37:15;;;;;;;5.53;3.25;;;;;;;9.25;68.12;100022.38;4910030;28;101947;-80
2022/12/31 03:39:41;;;;;;;5.15;3.35;;;;;;;9.19;68.43;100013.00;4916069;28;99594;-81
2022/12/31 03:42:06;;;;;;;5.50;3.75;;;;;;;9.19;67.82;100012.09;4946374;28;97151;-81
2022/12/31 03:44:32;;;;;;;4.85;3.08;;;;;;;9.19;68.35;100022.59;4900274;28;97347;-81
2022/12/31 03:46:57;;;;;;;6.18;3.58;;;;;;;9.25;67.82;100025.00;4927692;28;101717;-80
2022/12/31 03:49:23;;;;;;;6.07;3.85;;;;;;;9.06;68.26;99995.97;4894551;28;101213;-80
2022/12/31 03:51:49;;;;;;;7.22;4.05;;;;;;;9.27;67.92;100033.66;4933812;28;97280;-80
2022/12/31 03:54:14;;;;;;;4.72;3.35;;;;;;;9.23;68.06;100014.59;4941640;28;96847;-80
2022/12/31 03:56:40;;;;;;;3.45;2.60;;;;;;;9.36;67.97;100025.50;4935021;28;101497;-81
2022/12/31 03:59:05;;;;;;;4.57;2.85;;;;;;;9.29;68.45;100018.78;4903449;28;101296;-80
2022/12/31 04:01:31;;;;;;;3.85;2.78;;;;;;;9.40;68.56;100026.28;4930333;28;96794;-81
2022/12/31 04:03:57;;;;;;;3.35;2.30;;;;;;;9.42;68.56;100008.72;4939289;28;97166;-80
2022/12/31 04:06:22;;;;;;;4.72;3.08;;;;;;;9.44;68.61;100009.53;4939992;28;101190;-81
2022/12/31 04:08:48;;;;;;;3.13;2.35;;;;;;;9.43;68.16;99997.34;4930188;28;101632;-81
2022/12/31 04:11:13;;;;;;;3.80;2.85;;;;;;;9.42;68.48;99993.00;4902088;28;97141;-81
2022/12/31 04:13:39;;;;;;;4.15;3.08;;;;;;;9.33;68.89;99982.84;4944615;28;97123;-81
2022/12/31 04:16:04;;;;;;;4.43;3.17;;;;;;;9.47;68.51;100004.19;4930282;28;101138;-85
2022/12/31 04:18:30;;;;;;;3.15;2.30;;;;;;;9.33;69.00;99980.22;4933157;28;98387;-80
2022/12/31 04:21:03;;;;;;;6.15;2.70;;;;;;;9.44;68.54;100010.38;4892876;28;97068;-80
2022/12/31 04:23:29;;;;;;;3.67;2.80;;;;;;;9.48;68.58;100008.50;4927756;28;96831;-80
2022/12/31 04:25:56;;;;;;;5.03;2.80;;;;;;;9.44;68.57;99997.28;4939316;28;99867;-82
2022/12/31 04:28:22;;;;;;;4.88;2.80;;;;;;;9.36;68.72;99967.88;4918821;28;101225;-81
2022/12/31 04:30:48;;;;;;;3.40;2.53;;;;;;;9.49;68.67;99984.88;4910639;28;96727;-81
2022/12/31 04:33:13;;;;;;;4.30;2.28;;;;;;;9.54;69.07;99995.22;4953428;28;96777;-80
2022/12/31 04:35:39;;;;;;;3.67;2.75;;;;;;;9.45;68.64;99964.97;4912773;28;101382;-80
2022/12/31 04:38:04;;;;;;;3.83;2.55;;;;;;;9.55;69.42;99982.97;4913708;28;101368;-86
2022/12/31 04:40:30;;;;;;;4.25;2.53;;;;;;;9.49;68.85;99982.25;4912002;28;96723;-81
2022/12/31 04:42:56;;;;;;;3.55;2.30;;;;;;;9.50;69.36;100009.31;4922358;28;97309;-80
2022/12/31 04:45:21;;;;;;;4.75;2.25;;;;;;;9.57;69.05;100008.22;4910313;28;101497;-81
2022/12/31 04:47:47;;;;;;;4.05;2.20;;;;;;;9.58;69.24;100015.16;4926842;28;101459;-80
2022/12/31 04:50:12;;;;;;;3.38;2.78;;;;;;;9.70;69.40;100021.72;4926187;28;96793;-81
2022/12/31 04:52:38;;;;;;;2.95;2.30;;;;;;;9.67;69.11;100013.97;4942057;28;97841;-81
2022/12/31 04:55:04;;;;;;;3.00;2.05;;;;;;;9.52;69.06;99981.31;4962606;28;98362;-81
2022/12/31 04:57:30;;;;;;;5.40;2.00;;;;;;;9.66;69.41;100007.88;4931458;28;97537;-81
2022/12/31 04:59:55;;;;;;;3.42;2.10;;;;;;;9.69;69.42;100005.16;4916099;28;97194;-81
2022/12/31 05:02:21;;;;;;;2.50;1.90;;;;;;;9.71;69.51;100012.94;4945250;28;96884;-81
2022/12/31 05:04:46;;;;;;;3.38;2.10;;;;;;;9.60;69.66;100002.88;4913003;28;101486;-81
2022/12/31 05:07:12;;;;;;;7.40;3.10;;;;;;;9.59;69.55;100009.00;4917783;28;101886;-81
2022/12/31 05:09:37;;;;;;;4.15;2.78;;;;;;;9.55;69.92;100028.38;4938539;28;96752;-81
2022/12/31 05:12:03;;;;;;;5.15;2.83;;;;;;;9.44;70.05;100018.25;4912089;28;97334;-83
2022/12/31 05:14:29;;;;;;;3.92;2.80;;;;;;;9.39;70.73;100016.69;4919583;28;101106;-81
2022/12/31 05:16:55;;;;;;;4.10;2.40;;;;;;;9.33;70.63;100003.78;4917259;28;101701;-81
2022/12/31 05:19:20;;;;;;;3.05;2.25;;;;;;;9.23;70.90;99987.56;4909332;28;97349;-81
2022/12/31 05:22:27;;;;;;;4.03;2.50;;;;;;;9.24;70.80;99997.97;4899012;28;96913;-81
2022/12/31 05:24:31;;;;;;;3.00;2.33;;;;;;;9.14;71.22;99988.72;4941367;28;101666;-82
2022/12/31 05:26:57;;;;;;;3.50;2.17;;;;;;;9.18;71.37;99992.06;4912085;28;101040;-80
2022/12/31 05:29:22;;;;;;;4.95;2.10;;;;;;;9.31;71.41;100011.72;4908962;28;96859;-81
2022/12/31 05:31:48;;;;;;;2.90;2.00;;;;;;;9.28;71.31;100011.81;4925465;28;96944;-80
2022/12/31 05:34:13;;;;;;;3.28;2.50;;;;;;;9.34;71.69;100008.13;4944307;28;101303;-80
2022/12/31 05:36:39;;;;;;;3.58;2.08;;;;;;;9.32;71.22;100005.56;4903263;28;101681;-81
2022/12/31 05:39:04;;;;;;;3.42;2.50;;;;;;;9.34;71.64;100013.34;4942655;28;96930;-80
2022/12/31 05:41:30;;;;;;;4.03;2.58;;;;;;;9.30;71.48;100010.84;4927644;28;97359;-82
2022/12/31 05:43:55;;;;;;;4.72;2.30;;;;;;;9.36;71.53;100019.41;4927495;28;101490;-80
2022/12/31 05:46:21;;;;;;;3.60;2.42;;;;;;;9.37;71.73;100011.50;4928394;28;101590;-81
2022/12/31 05:48:46;;;;;;;3.38;2.00;;;;;;;9.38;71.97;100007.13;4893904;28;97390;-80
2022/12/31 05:51:12;;;;;;;3.22;1.92;;;;;;;9.33;72.21;100011.66;4909234;28;97231;-85
2022/12/31 05:53:37;;;;;;;2.22;1.90;;;;;;;9.37;71.85;100008.03;4940230;28;101646;-82
2022/12/31 05:56:03;;;;;;;3.10;2.40;;;;;;;9.34;71.43;100005.50;4915157;28;101923;-80
2022/12/31 05:58:28;;;;;;;2.55;2.03;;;;;;;9.30;71.57;100002.13;4922305;28;96793;-81
2022/12/31 06:00:54;;;;;;;2.53;2.08;;;;;;;9.42;72.34;100021.81;4946851;28;96847;-80
2022/12/31 06:03:19;;;;;;;2.05;1.77;;;;;;;9.29;72.64;100005.66;4922354;28;101554;-80
2022/12/31 06:05:45;;;;;;;2.35;1.80;;;;;;;9.34;72.17;100001.13;4942925;28;101619;-81
2022/12/31 06:08:11;;;;;;;3.40;1.88;;;;;;;9.32;72.07;99997.72;4911676;28;96928;-83
2022/12/31 06:10:37;;;;;;;2.53;2.00;;;;;;;9.39;72.20;100014.06;4957939;28;96841;-81
2022/12/31 06:13:03;;;;;;;3.95;1.90;;;;;;;9.39;72.60;100014.06;4906084;28;98459;-80
2022/12/31 06:15:29;;;;;;;3.53;2.10;;;;;;;9.28;73.23;99996.97;4947088;28;101207;-82
2022/12/31 06:17:54;;;;;;;3.40;1.88;;;;;;;9.29;72.87;100006.53;4945113;28;96878;-80
2022/12/31 06:20:20;;;;;;;2.75;2.08;;;;;;;9.45;73.11;100021.72;4943641;28;97622;-80
2022/12/31 06:22:45;;;;;;;2.67;1.88;;;;;;;9.46;73.58;100018.22;4916215;28;101504;-81
2022/12/31 06:25:11;;;;;;;2.10;1.88;;;;;;;9.44;73.52;100020.88;4919193;28;101100;-81
2022/12/31 06:27:36;;;;;;;2.15;1.80;;;;;;;9.42;73.37;100011.34;4951093;28;96811;-81
2022/12/31 06:30:02;;;;;;;2.47;1.88;;;;;;;9.48;73.65;100035.59;4927937;28;97495;-82
2022/12/31 06:32:27;;;;;;;3.15;2.03;;;;;;;9.48;73.46;100046.06;4898162;28;101482;-82
2022/12/31 06:34:53;;;;;;;2.30;1.80;;;;;;;9.49;73.56;100044.28;4929913;28;101769;-80
2022/12/31 06:37:19;;;;;;;2.85;1.88;;;;;;;9.47;73.84;100020.75;4912557;28;96771;-81
2022/12/31 06:39:44;;;;;;;2.67;1.70;;;;;;;9.39;74.05;100016.69;4923418;28;97012;-80
2022/12/31 06:42:10;;;;;;;2.47;1.85;;;;;;;9.58;73.94;100022.16;4926403;28;97513;-80
2022/12/31 06:44:36;;;;;;;2.97;2.20;;;;;;;9.67;73.74;100020.06;4913397;28;101277;-80
2022/12/31 06:47:02;;;;;;;3.13;2.42;;;;;;;9.70;73.54;100027.81;4931310;28;97903;-82
2022/12/31 06:49:28;;;;;;;3.70;2.55;;;;;;;9.64;73.93;100027.19;4910778;28;97291;-80
2022/12/31 06:51:54;;;;;;;2.80;2.17;;;;;;;9.63;74.02;100031.59;4925671;28;98614;-80
2022/12/31 06:54:20;;;;;;;3.63;2.53;;;;;;;9.66;74.32;100018.38;4930974;28;101381;-80
2022/12/31 06:56:46;;;;;;;2.55;1.90;;;;;;;9.65;74.37;100016.63;4931006;28;97225;-80
2022/12/31 06:59:22;;;;;;;2.67;2.00;;;;;;;9.77;74.05;100017.13;4930904;28;96774;-81
2022/12/31 07:01:50;;;;;;;2.88;2.10;;;;;;;9.66;74.42;100014.91;4945346;28;101591;-80
2022/12/31 07:04:42;;;;;;;3.88;2.17;;;;;;;9.73;74.24;100035.56;4925737;28;101282;-83
2022/12/31 07:07:18;;;;;;;2.25;1.92;;;;;;;9.74;74.30;100046.91;4919941;28;97420;-80
2022/12/31 07:10:11;;;;;;;3.42;2.28;;;;;;;9.77;73.85;100048.56;4914329;28;96833;-80
2022/12/31 07:12:39;;;;;;;3.85;2.10;;;;;;;9.82;74.10;100057.16;4925747;28;101352;-81
2022/12/31 07:15:23;;;;;;;2.33;1.92;;;;;;;9.81;73.97;100052.81;4920520;28;101633;-80
2022/12/31 07:18:15;;;;;;;3.17;1.85;;;;;;;9.85;73.83;100051.78;4931556;28;97124;-80
2022/12/31 07:20:41;;;;;;;3.72;2.30;;;;;;;9.79;74.25;100042.38;4909085;28;96881;-81
2022/12/31 07:23:07;;;;;;;3.53;2.15;;;;;;;9.85;74.34;100059.66;4926021;28;101161;-80
2022/12/31 07:25:34;;;;;;;3.00;2.13;;;;;;;9.83;74.41;100049.25;4924817;28;97345;-81
2022/12/31 07:27:59;;;;;;;3.50;1.73;;;;;;;9.86;74.00;100048.25;4897539;28;97036;-81
2022/12/31 07:30:41;;;;;;;2.70;2.08;;;;;;;10.01;74.58;100058.22;4923761;28;96852;-80
2022/12/31 07:33:52;;;;;;;3.38;2.22;;;;;;;10.05;74.29;100054.56;4928083;28;101982;-81
2022/12/31 07:36:45;;;;;;;3.58;2.10;;;;;;;10.02;74.35;100033.69;4931006;28;101791;-81
2022/12/31 07:39:33;;;;;;;4.57;2.28;;;;;;;10.16;73.87;100062.91;4926373;28;97398;-80
2022/12/31 07:42:04;;;;;;;3.53;2.20;;;;;;;10.18;74.00;100068.06;4959314;28;96919;-81
2022/12/31 07:44:33;;;;;;;2.47;1.90;;;;;;;10.09;74.20;100050.91;4956668;28;101405;-80
2022/12/31 07:47:00;;;;;;;3.47;2.17;;;;;;;10.25;73.50;100080.06;4930121;28;101788;-80
2022/12/31 07:49:28;;;;;;;2.75;1.92;;;;;;;10.25;73.61;100063.47;4889669;28;97031;-81
2022/12/31 07:51:54;;;;;;;2.85;2.00;;;;;;;10.32;73.54;100062.34;4944769;28;97246;-81
2022/12/31 07:54:20;;;;;;;2.25;1.77;;;;;;;10.32;73.76;100072.84;4961006;28;97932;-80
2022/12/31 07:56:46;;;;;;;3.17;2.25;;;;;;;10.29;73.39;100059.84;4895025;28;101871;-80
2022/12/31 07:59:41;;;;;;;2.13;1.92;;;;;;;10.31;73.41;100079.88;4922968;28;97060;-81
2022/12/31 08:02:17;;;;;;;3.17;2.45;;;;;;;10.33;73.22;100075.44;4927294;28;97237;-83
2022/12/31 08:04:58;;;;;;;3.35;2.42;;;;;;;10.35;73.33;100084.09;4925952;28;101055;-81
2022/12/31 08:08:06;;;;;;;3.22;2.42;;;;;;;10.27;73.45;100080.91;4954066;28;97969;-81
2022/12/31 08:10:58;;;;;;;3.83;2.17;;;;;;;10.39;73.18;100085.69;4919462;28;96904;-81
2022/12/31 08:13:24;;;;;;;4.68;2.20;;;;;;;10.42;73.15;100095.22;4943365;28;97398;-80
2022/12/31 08:15:50;;;;;;;4.10;2.20;;;;;;;10.43;73.60;100100.41;4914139;28;102117;-81
2022/12/31 08:18:16;;;;;;;3.63;2.33;;;;;;;10.42;73.55;100079.47;4945615;28;101379;-83
2022/12/31 08:20:57;;;;;;;3.35;2.13;;;;;;;10.40;73.18;100076.91;4911260;28;96815;-82
2022/12/31 08:23:46;;;;;;;2.60;2.10;;;;;;;10.50;73.41;100090.56;4921821;28;97059;-82
2022/12/31 08:26:35;;;;;;;3.42;2.13;;;;;;;10.45;73.33;100074.13;4921639;28;101226;-81
2022/12/31 08:29:41;;;;;;;2.88;1.92;;;;;;;10.57;73.01;100091.19;4923797;28;101909;-82
2022/12/31 08:32:14;;;;;;;3.20;2.03;;;;;;;10.63;73.06;100091.78;4942138;28;96925;-81
2022/12/31 08:34:50;;;;;;;3.45;2.10;;;;;;;10.63;72.84;100091.78;4923672;28;96900;-80
2022/12/31 08:37:43;;;;;;;5.55;2.13;;;;;;;10.69;72.86;100097.72;4934980;28;101936;-85
2022/12/31 08:40:26;;;;;;;3.78;2.17;;;;;;;10.74;73.05;100094.03;4914296;28;101158;-81
2022/12/31 08:43:28;;;;;;;4.68;1.95;;;;;;;10.81;72.76;100092.00;4912071;28;98145;-81
2022/12/31 08:45:55;;;;;;;3.03;1.88;;;;;;;10.82;72.60;100084.09;4952120;28;97085;-82
2022/12/31 08:48:41;;;;;;;3.60;1.90;;;;;;;10.88;72.48;100090.88;4936569;28;100283;-82
2022/12/31 08:51:21;;;;;;;2.63;2.15;;;;;;;10.96;72.46;100085.28;4936339;28;101462;-82
2022/12/31 08:53:47;;;;;;;3.15;2.00;;;;;;;11.02;72.32;100067.50;4893817;28;97135;-81
2022/12/31 08:56:16;;;;;;;3.20;2.25;;;;;;;11.09;72.36;100076.88;4920339;28;97030;-81
2022/12/31 08:59:07;;;;;;;3.53;1.90;;;;;;;11.26;71.67;100078.84;4919988;28;102143;-81
2022/12/31 09:01:53;;;;;;;2.23;1.60;;;;;;;11.45;71.31;100072.81;4923873;28;100895;-79
2022/12/31 09:04:38;;;;;;;2.20;1.67;;;;;;;11.69;71.24;100065.66;4921142;28;97830;-82
2022/12/31 09:07:05;;;;;;;3.10;2.00;;;;;;;11.88;70.44;100068.41;4923848;28;97600;-80
2022/12/31 09:09:33;;;;;;;3.08;2.00;;;;;;;12.05;70.08;100054.53;4905103;28;101906;-80
2022/12/31 09:12:09;;;;;;;2.85;1.55;;;;;;;12.12;69.69;100062.06;4921663;28;101885;-80
2022/12/31 09:14:46;;;;;;;3.00;1.60;;;;;;;12.20;69.95;100069.63;4935911;28;98573;-81
2022/12/31 09:17:24;;;;;;;1.67;1.13;;;;;;;12.26;70.04;100069.34;4928969;28;96795;-83
2022/12/31 09:19:51;;;;;;;4.18;1.10;;;;;;;12.28;70.21;100067.50;4929850;28;101694;-83
2022/12/31 09:22:17;;;;;;;2.15;1.38;;;;;;;12.36;70.38;100069.75;4915121;28;101016;-96
2022/12/31 09:24:43;;;;;;;1.50;1.10;;;;;;;12.40;70.32;100076.63;4890391;28;97156;-96
2022/12/31 09:27:25;;;;;;;1.88;1.20;;;;;;;12.48;70.11;100073.63;4930292;28;96885;-96
2022/12/31 09:30:03;;;;;;;1.77;1.33;;;;;;;12.45;70.35;100064.09;4890004;28;100469;-96
2022/12/31 09:32:37;;;;;;;2.20;1.50;;;;;;;12.39;70.28;100057.34;4919455;28;100995;-96
2022/12/31 09:35:24;;;;;;;2.95;1.40;;;;;;;12.39;70.33;100045.94;4926851;28;97025;-96
2022/12/31 09:37:54;;;;;;;2.90;1.73;;;;;;;12.52;70.16;100052.34;4931619;28;96763;-91
2022/12/31 09:40:38;;;;;;;2.13;1.40;;;;;;;12.62;70.05;100048.38;4911918;28;100800;-96
2022/12/31 09:43:04;;;;;;;3.42;1.75;;;;;;;12.90;70.01;100068.13;4942924;28;101833;-96
2022/12/31 09:45:53;;;;;;;3.17;1.40;;;;;;;12.98;69.07;100058.09;4924000;28;97383;-87
2022/12/31 09:48:43;;;;;;;1.75;1.17;;;;;;;13.18;68.57;100062.41;4931484;28;97199;-96
2022/12/31 09:51:29;;;;;;;2.95;1.80;;;;;;;13.31;68.24;100062.69;4920153;28;101107;-96
2022/12/31 09:54:13;;;;;;;2.55;1.58;;;;;;;13.47;67.62;100057.50;4941824;28;99561;-95
2022/12/31 09:56:47;;;;;;;4.88;2.20;;;;;;;13.57;67.01;100037.63;4944133;28;97206;-95
2022/12/31 09:59:22;;;;;;;2.28;1.63;;;;;;;13.57;67.38;100042.91;4929961;28;96957;-95
2022/12/31 10:02:18;;;;;;;2.60;1.42;;;;;;;13.82;66.69;100058.34;4941703;28;100495;-95
2022/12/31 10:04:53;;;;;;;2.00;1.30;;;;;;;13.77;66.94;100061.22;4907363;28;100268;-96
2022/12/31 10:07:28;;;;;;;1.60;1.27;;;;;;;13.86;66.46;100067.81;4931126;28;97770;-95
2022/12/31 10:10:00;;;;;;;13.15;4.68;;;;;;;13.92;66.49;100061.34;4933618;28;96798;-96
2022/12/31 10:13:04;;;;;;;11.55;4.97;;;;;;;13.91;66.66;100054.38;4932989;28;100591;-96
2022/12/31 10:15:48;;;;;;;2.10;1.50;;;;;;;13.90;66.46;100052.66;4925218;28;101844;-96
2022/12/31 10:18:26;;;;;;;2.75;1.75;;;;;;;13.68;66.79;100016.84;4934955;28;97029;-96
2022/12/31 10:21:15;;;;;;;6.32;4.00;;;;;;;14.02;66.56;100052.88;4949934;28;97502;-87
2022/12/31 10:24:18;;;;;;;4.38;2.58;;;;;;;14.04;66.24;100058.06;4955372;28;98484;-96
2022/12/31 10:27:20;;;;;;;3.70;1.73;;;;;;;13.87;66.45;100053.66;4901914;28;100871;-86
2022/12/31 10:30:12;;;;;;;2.15;1.55;;;;;;;13.72;66.95;100041.28;4922301;28;96874;-85
2022/12/31 10:33:00;;;;;;;2.25;1.30;;;;;;;13.91;66.75;100043.84;4913179;28;96796;-84
2022/12/31 10:35:45;;;;;;;4.82;2.50;;;;;;;13.87;66.77;100053.66;4907731;28;100698;-85
2022/12/31 10:38:31;;;;;;;2.42;1.58;;;;;;;13.95;67.04;100048.84;4925673;28;99493;-85
2022/12/31 10:41:39;;;;;;;1.70;1.30;;;;;;;13.93;66.03;100023.47;4941506;28;96937;-88
2022/12/31 10:44:26;;;;;;;10.95;2.03;;;;;;;13.98;66.69;100034.66;4915821;28;97156;-84
2022/12/31 10:47:15;;;;;;;4.70;2.45;;;;;;;13.95;66.95;100024.25;4935348;28;98071;-88
2022/12/31 10:50:05;;;;;;;3.58;1.50;;;;;;;13.96;66.64;100032.09;4910264;28;101734;-83
2022/12/31 10:52:46;;;;;;;2.33;1.60;;;;;;;14.00;66.93;100040.69;4961081;28;96877;-84
2022/12/31 10:55:46;;;;;;;2.28;1.20;;;;;;;13.96;66.03;100013.63;4931732;28;98085;-84
2022/12/31 10:58:26;;;;;;;3.22;1.80;;;;;;;14.19;65.69;100036.13;4929930;28;97963;-84
2022/12/31 11:01:02;;;;;;;5.93;1.60;;;;;;;14.20;66.10;100016.75;4955863;28;101317;-84
2022/12/31 11:03:46;;;;;;;3.58;1.88;;;;;;;14.14;65.57;100011.78;4914075;28;96855;-85
2022/12/31 11:06:50;;;;;;;3.13;1.88;;;;;;;14.23;65.77;100023.66;4947733;28;97017;-84
2022/12/31 11:09:41;;;;;;;3.65;2.20;;;;;;;14.21;66.12;100034.28;4914955;28;101770;-83
2022/12/31 11:12:25;;;;;;;3.42;1.45;;;;;;;14.23;65.99;100024.50;4945556;28;101517;-85
2022/12/31 11:15:09;;;;;;;2.30;1.13;;;;;;;14.31;65.46;100017.94;4923089;28;96928;-85
2022/12/31 11:17:59;;;;;;;2.13;1.42;;;;;;;14.19;65.81;100015.00;4933179;28;96780;-85
2022/12/31 11:20:49;;;;;;;2.35;1.45;;;;;;;14.24;65.49;100013.00;4940867;28;101689;-82
2022/12/31 11:23:33;;;;;;;5.75;1.90;;;;;;;14.30;65.41;100013.59;4945010;28;101660;-82
2022/12/31 11:26:21;;;;;;;2.53;1.35;;;;;;;14.33;65.22;100008.16;4919911;28;96843;-83
2022/12/31 11:29:00;;;;;;;1.85;1.38;;;;;;;14.27;65.52;100009.34;4926388;28;96946;-82
2022/12/31 11:32:00;;;;;;;2.92;1.55;;;;;;;14.38;65.21;100001.69;4923403;28;101486;-83
2022/12/31 11:34:57;;;;;;;1.92;1.30;;;;;;;14.38;65.27;100006.13;4922423;28;100843;-85
2022/12/31 11:37:40;;;;;;;2.58;1.25;;;;;;;14.25;65.55;99998.88;4914978;28;96876;-84
2022/12/31 11:40:36;;;;;;;2.75;1.40;;;;;;;14.38;65.47;99999.03;4927892;28;96903;-83
2022/12/31 11:43:08;;;;;;;5.63;1.38;;;;;;;14.35;65.57;100007.13;4951105;28;101349;-83
2022/12/31 11:45:47;;;;;;;2.90;1.80;;;;;;;14.29;65.73;99996.91;4926700;28;98118;-83
2022/12/31 11:48:31;;;;;;;2.58;1.75;;;;;;;14.30;65.61;99990.69;4953219;28;96817;-83
2022/12/31 11:51:18;;;;;;;3.88;1.50;;;;;;;14.37;65.75;99996.47;4954494;28;97275;-83
2022/12/31 11:54:29;;;;;;;2.65;1.50;;;;;;;14.37;65.68;99983.28;4920575;28;101733;-83
2022/12/31 11:56:58;;;;;;;2.38;1.67;;;;;;;14.40;65.80;99985.78;4915268;28;101644;-84
2022/12/31 11:59:23;;;;;;;1.83;1.50;;;;;;;14.37;65.49;99981.50;4921180;28;97411;-85
2022/12/31 12:01:58;;;;;;;7.10;1.67;;;;;;;14.41;65.49;99961.91;4917972;28;97458;-84
2022/12/31 12:04:24;;;;;;;1.92;1.20;;;;;;;14.45;65.54;99963.44;4933641;28;101896;-84
2022/12/31 12:06:51;;;;;;;2.47;1.33;;;;;;;14.46;65.07;99972.22;4939065;28;101004;-83
2022/12/31 12:09:29;;;;;;;2.72;1.40;;;;;;;14.44;65.41;99960.88;4887811;28;96934;-83
2022/12/31 12:11:59;;;;;;;2.55;1.20;;;;;;;14.54;65.33;99977.09;4937556;28;97150;-84
2022/12/31 12:14:37;;;;;;;2.83;1.37;;;;;;;14.49;65.12;99964.97;4922838;28;101247;-85
2022/12/31 12:17:07;;;;;;;2.85;1.70;;;;;;;14.57;65.02;99982.19;4911747;28;101794;-85
2022/12/31 12:19:40;;;;;;;2.50;1.40;;;;;;;14.55;65.41;99990.22;4914414;28;98041;-88
2022/12/31 12:22:17;;;;;;;2.95;1.52;;;;;;;14.55;65.39;99989.38;4890844;28;96855;-85